Time;durP1;ratioP1;P1;durP2;ratioP2;P2;SDS_P1;SDS_P2;PMS_P1;PMS_P2;Temp;Humidity;BMP_temperature;BMP_pressure;BME280_temperature;BME280_humidity;BME280_pressure;Samples;Min_cycle;Max_cycle;Signal;HPM_P1;HPM_P2
2023/08/10 00:03:33;;;;;;;4.60;1.50;;;;;;;-145.68;100.00;74579.28;10369476;28;20217;-69
2023/08/10 00:08:34;;;;;;;3.27;1.40;;;;;;;-145.68;100.00;74577.28;10377521;28;20251;-69
2023/08/10 00:13:34;;;;;;;4.67;1.50;;;;;;;-145.68;100.00;74567.28;10376936;28;20241;-69
2023/08/10 00:18:34;;;;;;;2.93;1.37;;;;;;;-145.68;100.00;74553.28;10376767;28;20728;-69
2023/08/10 00:23:35;;;;;;;2.77;1.47;;;;;;;-145.68;100.00;74565.28;10377008;28;20709;-70
2023/08/10 00:28:35;;;;;;;4.40;1.67;;;;;;;-145.68;100.00;74559.28;10376445;28;20224;-69
2023/08/10 00:33:37;;;;;;;6.00;2.70;;;;;;;-145.68;100.00;74563.28;10375544;28;20616;-69
2023/08/10 00:38:39;;;;;;;1.73;1.33;;;;;;;-145.68;100.00;74537.31;10376318;28;20679;-69
2023/08/10 00:43:42;;;;;;;2.43;1.30;;;;;;;-145.68;100.00;74543.31;10375942;28;20217;-69
2023/08/10 00:48:42;;;;;;;2.87;1.50;;;;;;;-145.68;100.00;74539.31;10375914;28;20702;-69
2023/08/10 00:53:43;;;;;;;1.87;1.20;;;;;;;-145.68;100.00;74535.31;10375251;28;20205;-70
2023/08/10 00:58:44;;;;;;;3.40;1.80;;;;;;;-145.68;100.00;74523.31;10375577;28;20212;-69
2023/08/10 01:03:44;;;;;;;2.93;1.40;;;;;;;-145.68;100.00;74519.31;10375010;28;20206;-69
2023/08/10 01:09:10;;;;;;;2.63;1.37;;;;;;;-145.68;100.00;74521.31;10375022;28;20582;-70
2023/08/10 01:14:20;;;;;;;4.50;1.43;;;;;;;-145.68;100.00;74503.31;10373671;28;20205;-69
2023/08/10 01:19:30;;;;;;;2.67;1.50;;;;;;;-145.68;100.00;74503.31;10374292;28;20251;-70
2023/08/10 01:24:32;;;;;;;2.03;1.50;;;;;;;-145.68;100.00;74491.31;10374829;28;20181;-69
2023/08/10 01:29:33;;;;;;;2.50;1.43;;;;;;;-145.68;100.00;74473.31;10356391;28;20220;-70
2023/08/10 01:34:34;;;;;;;1.87;1.40;;;;;;;-145.68;100.00;74475.31;10373138;28;20201;-69
2023/08/10 01:39:35;;;;;;;4.63;1.67;;;;;;;-145.68;100.00;74485.31;10372386;28;20218;-69
2023/08/10 01:44:35;;;;;;;1.30;1.20;;;;;;;-145.68;100.00;74495.31;10372431;28;20193;-69
2023/08/10 01:49:37;;;;;;;4.93;1.40;;;;;;;-145.68;100.00;74495.31;10372256;28;20785;-69
2023/08/10 01:54:39;;;;;;;1.40;1.30;;;;;;;-145.68;100.00;74499.31;10371950;28;20217;-70
2023/08/10 01:59:39;;;;;;;5.43;1.47;;;;;;;-145.68;100.00;74513.31;10372091;28;20205;-69
2023/08/10 02:04:40;;;;;;;2.03;1.37;;;;;;;-145.68;100.00;74515.31;10372686;28;20198;-69
2023/08/10 02:09:42;;;;;;;3.03;1.53;;;;;;;-145.68;100.00;74515.31;10372474;28;20229;-69
2023/08/10 02:14:42;;;;;;;3.43;1.20;;;;;;;-145.68;100.00;74523.31;10372779;28;20185;-69
2023/08/10 02:19:47;;;;;;;2.63;1.60;;;;;;;-145.68;100.00;74537.31;10371006;28;20201;-69
2023/08/10 02:24:47;;;;;;;4.53;1.23;;;;;;;-145.68;100.00;74539.31;10372410;28;20205;-69
2023/08/10 02:29:48;;;;;;;2.03;1.30;;;;;;;-145.68;100.00;74539.31;10369827;28;20255;-69
2023/08/10 02:34:48;;;;;;;2.50;1.43;;;;;;;-145.68;100.00;74539.31;10370764;28;20272;-68
2023/08/10 02:39:49;;;;;;;7.27;1.47;;;;;;;-145.68;100.00;74541.31;10371800;28;20197;-69
2023/08/10 02:44:51;;;;;;;4.27;1.40;;;;;;;-145.68;100.00;74557.28;10370346;28;20284;-69
2023/08/10 02:49:51;;;;;;;3.40;1.37;;;;;;;-145.68;100.00;74577.28;10371036;28;20232;-69
2023/08/10 02:54:52;;;;;;;2.37;1.37;;;;;;;-145.68;100.00;74585.28;10370594;28;20200;-69
2023/08/10 02:59:52;;;;;;;6.00;1.60;;;;;;;-145.68;100.00;74595.28;10370869;28;20671;-69
2023/08/10 03:04:52;;;;;;;5.17;1.40;;;;;;;-145.68;100.00;74609.28;10344519;28;20584;-69
2023/08/10 03:09:53;;;;;;;4.57;1.53;;;;;;;-145.68;100.00;74609.28;10328828;28;20230;-70
2023/08/10 03:14:57;;;;;;;4.77;1.47;;;;;;;-145.68;100.00;74619.28;10329222;28;20193;-69
2023/08/10 03:19:57;;;;;;;2.20;1.37;;;;;;;-145.68;100.00;74625.28;10344834;28;20218;-69
2023/08/10 03:24:58;;;;;;;1.70;1.53;;;;;;;-145.68;100.00;74633.28;10329064;28;20208;-69
2023/08/10 03:29:58;;;;;;;1.57;1.47;;;;;;;-145.68;100.00;74637.28;10329460;28;20221;-70
2023/08/10 03:34:59;;;;;;;2.70;1.30;;;;;;;-145.68;100.00;74645.28;10328691;28;20185;-69
2023/08/10 03:40:00;;;;;;;6.47;1.70;;;;;;;-145.68;100.00;74647.28;10348515;28;20209;-69
2023/08/10 03:45:00;;;;;;;2.40;1.40;;;;;;;-145.68;100.00;74647.28;10337965;28;20178;-69
2023/08/10 03:50:01;;;;;;;3.17;1.57;;;;;;;-145.68;100.00;74645.28;10337687;28;20237;-69
2023/08/10 03:55:03;;;;;;;1.47;1.30;;;;;;;-145.68;100.00;74643.28;10352221;28;20676;-69
2023/08/10 04:00:05;;;;;;;1.40;1.30;;;;;;;-145.68;100.00;74643.28;10336017;28;20210;-69
2023/08/10 04:05:17;;;;;;;2.33;1.43;;;;;;;-145.68;100.00;74641.28;10337116;28;20194;-69
2023/08/10 04:10:17;;;;;;;1.63;1.53;;;;;;;-145.68;100.00;74643.28;10335266;28;20611;-69
2023/08/10 04:15:18;;;;;;;4.53;1.70;;;;;;;-145.68;100.00;74651.25;10336939;28;20672;-69
2023/08/10 04:20:18;;;;;;;3.67;2.00;;;;;;;-145.68;100.00;74643.28;10336303;28;20202;-69
2023/08/10 04:25:19;;;;;;;1.73;1.43;;;;;;;-145.68;100.00;74643.28;10336296;28;20205;-69
2023/08/10 04:30:19;;;;;;;1.60;1.50;;;;;;;-145.68;100.00;74639.28;10336032;28;20226;-69
2023/08/10 04:35:19;;;;;;;1.47;1.37;;;;;;;-145.68;100.00;74635.28;10335935;28;20560;-69
2023/08/10 04:40:20;;;;;;;3.70;1.30;;;;;;;-145.68;100.00;74627.28;10335965;28;20284;-69
2023/08/10 04:45:21;;;;;;;6.80;1.73;;;;;;;-145.68;100.00;74615.28;10335289;28;20695;-69
2023/08/10 04:50:21;;;;;;;4.67;1.50;;;;;;;-145.68;100.00;74605.28;10334646;28;20222;-69
2023/08/10 04:55:22;;;;;;;1.43;1.30;;;;;;;-145.68;100.00;74579.28;10335049;28;20945;-69
2023/08/10 05:00:23;;;;;;;1.47;1.37;;;;;;;-145.68;100.00;74553.28;10335155;28;20708;-70
2023/08/10 05:05:23;;;;;;;3.40;1.50;;;;;;;-145.68;100.00;74535.31;10334925;28;20698;-70
2023/08/10 05:10:24;;;;;;;2.93;1.60;;;;;;;-145.68;100.00;74505.31;10371831;22;20251;-69
2023/08/10 05:15:24;;;;;;;3.87;2.20;;;;;;;-145.68;100.00;74475.31;10370337;28;20240;-69
2023/08/10 05:20:24;;;;;;;1.57;1.37;;;;;;;-145.68;100.00;74439.34;10373258;28;20213;-68
2023/08/10 05:25:25;;;;;;;1.90;1.60;;;;;;;-145.68;100.00;74409.34;10374550;28;20193;-68
2023/08/10 05:30:25;;;;;;;4.60;1.50;;;;;;;-145.68;96.83;74365.38;10374157;28;20221;-69
2023/08/10 05:35:26;;;;;;;3.23;1.60;;;;;;;-145.68;93.71;74333.38;10372769;28;20221;-68
2023/08/10 05:40:27;;;;;;;2.10;1.40;;;;;;;-145.68;91.57;74297.41;10373118;28;20216;-69
2023/08/10 05:45:27;;;;;;;3.57;2.13;;;;;;;-145.68;90.50;74263.41;10373487;28;20195;-69
2023/08/10 05:50:27;;;;;;;1.17;1.00;;;;;;;-145.68;85.86;74207.44;10373667;28;20249;-69
2023/08/10 05:55:28;;;;;;;1.85;1.42;;;;;;;-145.68;82.52;74159.44;10373211;28;20276;-69
2023/08/10 06:00:28;;;;;;;4.80;1.58;;;;;;;-145.68;79.69;74115.47;10373104;28;20259;-69
2023/08/10 06:05:32;;;;;;;2.38;1.73;;;;;;;-145.68;76.44;74015.50;10372590;28;20224;-69
2023/08/10 06:10:33;;;;;;;1.45;1.27;;;;;;;-145.68;70.18;73893.56;10370070;28;20320;-70
2023/08/10 06:15:33;;;;;;;4.93;1.70;;;;;;;-145.68;65.10;73811.63;10372351;28;20284;-69
2023/08/10 06:20:34;;;;;;;1.48;1.20;;;;;;;-145.68;62.15;73711.66;10372247;28;20239;-70
2023/08/10 06:25:34;;;;;;;1.90;1.00;;;;;;;-145.68;58.84;73619.72;10372332;28;20197;-70
2023/08/10 06:30:35;;;;;;;4.13;1.10;;;;;;;-145.68;57.84;73599.72;10371941;28;20217;-71
2023/08/10 06:35:35;;;;;;;3.38;0.95;;;;;;;-145.68;58.27;73685.69;10371911;28;20614;-69
2023/08/10 06:40:36;;;;;;;2.47;1.25;;;;;;;-145.68;54.31;73505.78;10369562;28;20299;-70
2023/08/10 06:45:36;;;;;;;1.27;1.00;;;;;;;-145.68;52.61;73419.84;10370276;28;20577;-70
2023/08/10 06:50:37;;;;;;;3.80;1.40;;;;;;;-145.68;51.70;73445.81;10370280;28;20275;-71
2023/08/10 06:55:38;;;;;;;1.48;0.88;;;;;;;-145.68;50.31;73401.84;10370070;28;20645;-70
2023/08/10 07:00:38;;;;;;;2.47;1.10;;;;;;;-145.68;46.42;73351.88;10370995;28;20312;-71
2023/08/10 07:05:41;;;;;;;2.00;1.10;;;;;;;-145.68;46.40;73459.81;10341008;28;20228;-71
2023/08/10 07:10:42;;;;;;;2.15;1.00;;;;;;;-145.68;45.18;73305.91;10367159;28;20229;-71
2023/08/10 07:15:44;;;;;;;2.30;1.08;;;;;;;-145.68;44.58;73305.91;10368815;28;20201;-71
2023/08/10 07:20:45;;;;;;;1.65;1.00;;;;;;;-145.68;44.11;73311.91;10368936;28;20271;-70
2023/08/10 07:25:45;;;;;;;0.90;0.90;;;;;;;-145.68;42.46;73194.00;10368674;28;20219;-70
2023/08/10 07:30:47;;;;;;;1.67;0.90;;;;;;;-145.68;42.02;73335.91;10368719;28;20216;-70
2023/08/10 07:35:48;;;;;;;1.50;1.10;;;;;;;-145.68;42.02;73283.94;10367721;28;20630;-70
2023/08/10 07:40:48;;;;;;;2.15;1.20;;;;;;;-145.68;41.95;73217.97;10367532;28;20208;-70
2023/08/10 07:45:48;;;;;;;1.38;1.20;;;;;;;-145.68;40.79;73241.97;10368439;28;20185;-69
2023/08/10 07:50:49;;;;;;;2.53;1.25;;;;;;;-145.68;41.18;73335.91;10346393;28;20218;-68
2023/08/10 07:55:49;;;;;;;1.75;1.10;;;;;;;-145.68;41.99;73253.94;10327529;28;20201;-69
2023/08/10 08:00:49;;;;;;;3.50;1.10;;;;;;;-145.68;41.54;73126.03;10328208;28;20213;-69
2023/08/10 08:05:50;;;;;;;0.93;0.90;;;;;;;-145.68;39.67;73050.09;10326993;28;20228;-69
2023/08/10 08:10:50;;;;;;;1.13;1.00;;;;;;;-145.68;37.90;72996.13;10364213;28;20237;-70
2023/08/10 08:15:51;;;;;;;1.25;0.90;;;;;;;-145.68;36.34;72892.22;10368189;28;20947;-71
2023/08/10 08:20:51;;;;;;;1.15;0.75;;;;;;;-145.68;36.24;72748.31;10367806;28;20594;-70
2023/08/10 08:25:51;;;;;;;2.25;0.90;;;;;;;-145.68;35.98;72734.31;10369514;28;20251;-70
2023/08/10 08:30:52;;;;;;;2.45;1.30;;;;;;;-145.68;35.54;72834.25;10374996;28;20224;-70
2023/08/10 08:35:52;;;;;;;1.23;1.00;;;;;;;-145.68;35.46;72788.28;10375254;28;20189;-71
2023/08/10 08:40:54;;;;;;;3.92;1.20;;;;;;;-145.68;37.41;73142.03;10373294;28;20568;-71
2023/08/10 08:45:57;;;;;;;3.47;1.15;;;;;;;-145.68;37.24;73038.09;10375042;28;20257;-71
2023/08/10 08:50:57;;;;;;;1.27;1.10;;;;;;;-145.68;37.13;72922.19;10374152;28;20217;-71
2023/08/10 08:55:58;;;;;;;1.30;1.02;;;;;;;-145.68;35.80;72784.28;10374049;28;20727;-71
2023/08/10 09:01:00;;;;;;;1.55;0.98;;;;;;;-145.68;34.85;72710.34;10374313;28;20305;-72
2023/08/10 09:06:00;;;;;;;1.98;0.98;;;;;;;-145.68;33.74;72580.47;10373575;28;20213;-72
2023/08/10 09:11:02;;;;;;;2.53;1.00;;;;;;;-145.68;34.02;72706.34;10372558;28;20237;-71
2023/08/10 09:16:12;;;;;;;2.20;1.00;;;;;;;-145.68;34.02;72618.44;10373258;28;20197;-71
2023/08/10 09:21:14;;;;;;;3.45;1.10;;;;;;;-145.68;33.96;72624.41;10373292;28;20738;-71
2023/08/10 09:26:17;;;;;;;2.78;1.05;;;;;;;-145.68;31.85;72462.56;10373047;28;20332;-71
2023/08/10 09:31:25;;;;;;;1.58;1.10;;;;;;;-145.68;36.31;72986.13;10372641;28;20703;-71
2023/08/10 09:36:27;;;;;;;1.67;1.10;;;;;;;-145.68;35.52;72852.25;10372330;28;20192;-69
2023/08/10 09:41:27;;;;;;;12.82;1.30;;;;;;;-145.68;36.72;72968.16;10339598;28;20956;-72
2023/08/10 09:46:29;;;;;;;2.45;1.27;;;;;;;-145.68;36.67;73058.09;10363080;28;20221;-72
2023/08/10 09:51:36;;;;;;;1.17;1.00;;;;;;;-145.68;35.62;72838.25;10371960;28;20209;-72
2023/08/10 09:56:37;;;;;;;2.28;1.30;;;;;;;-145.68;35.07;72940.16;10371161;28;20197;-72
2023/08/10 10:01:37;;;;;;;3.35;1.10;;;;;;;-145.68;34.90;72716.34;10370385;28;20220;-72
2023/08/10 10:06:38;;;;;;;3.08;1.20;;;;;;;-145.68;34.34;72634.41;10370487;28;20687;-70
2023/08/10 10:11:38;;;;;;;2.20;1.05;;;;;;;-145.68;31.77;72600.44;10353697;28;20233;-70
2023/08/10 10:16:38;;;;;;;3.78;1.30;;;;;;;-145.68;32.59;72718.34;10369567;28;20186;-69
2023/08/10 10:21:40;;;;;;;1.55;1.20;;;;;;;-145.68;33.33;72672.38;10370154;28;20633;-70
2023/08/10 10:26:56;;;;;;;2.17;1.20;;;;;;;-145.68;34.12;72906.19;10370456;28;20217;-71
2023/08/10 10:32:04;;;;;;;1.13;0.90;;;;;;;-145.68;33.53;72548.47;10370171;28;20232;-73
2023/08/10 10:37:10;;;;;;;2.70;1.40;;;;;;;-145.68;33.05;72468.56;10368917;28;20269;-68
2023/08/10 10:42:12;;;;;;;1.88;1.08;;;;;;;-145.68;32.75;72320.69;10370355;28;20358;-74
2023/08/10 10:47:16;;;;;;;2.70;1.35;;;;;;;-145.68;31.18;72248.75;10368199;28;20217;-70
2023/08/10 10:52:34;;;;;;;1.90;1.00;;;;;;;-145.68;32.68;72414.59;10369918;28;20216;-73
2023/08/10 10:57:38;;;;;;;2.08;1.05;;;;;;;-145.68;34.55;72438.56;10367723;28;20196;-72
2023/08/10 11:02:39;;;;;;;1.65;1.30;;;;;;;-145.68;33.61;72380.63;10369112;28;20283;-73
2023/08/10 11:07:44;;;;;;;2.92;1.40;;;;;;;-145.68;33.53;72484.53;10367310;28;20271;-72
2023/08/10 11:12:48;;;;;;;1.75;1.23;;;;;;;-145.68;34.29;72560.47;10384296;23;20269;-68
2023/08/10 11:17:52;;;;;;;1.95;1.33;;;;;;;-145.68;32.96;72426.59;10408599;28;20686;-69
2023/08/10 11:22:53;;;;;;;4.72;1.30;;;;;;;-145.68;31.24;72136.84;10408457;28;20204;-70
2023/08/10 11:27:53;;;;;;;2.88;1.30;;;;;;;-145.68;32.95;72418.59;10409866;28;20213;-66
2023/08/10 11:32:57;;;;;;;1.40;1.10;;;;;;;-145.68;32.28;72448.56;10409738;28;20216;-70
2023/08/10 11:37:57;;;;;;;3.38;1.35;;;;;;;-145.68;32.92;72256.75;10409249;28;20188;-70
2023/08/10 11:43:03;;;;;;;3.08;1.40;;;;;;;-145.68;31.13;72124.88;10409900;28;20286;-68
2023/08/10 11:48:16;;;;;;;3.03;1.30;;;;;;;-145.68;31.39;72096.88;10407946;28;20270;-69
2023/08/10 11:53:22;;;;;;;2.00;1.50;;;;;;;-145.68;30.80;72208.78;10407582;28;20252;-68
2023/08/10 11:58:24;;;;;;;1.90;1.40;;;;;;;-145.68;31.49;72268.72;10408363;28;20188;-69
2023/08/10 12:03:25;;;;;;;1.50;1.27;;;;;;;-145.68;30.90;72200.78;10415776;28;20581;-68
2023/08/10 12:08:30;;;;;;;1.50;1.20;;;;;;;-145.68;29.53;71945.03;10412977;28;20240;-68
2023/08/10 12:13:31;;;;;;;1.98;1.40;;;;;;;-145.68;27.75;71805.19;10415619;28;20237;-68
2023/08/10 12:18:31;;;;;;;3.05;1.50;;;;;;;-145.68;30.34;72060.94;10415739;28;20897;-67
2023/08/10 12:23:31;;;;;;;1.90;1.67;;;;;;;-145.68;29.95;72040.94;10414304;28;20713;-68
2023/08/10 12:28:32;;;;;;;2.10;1.80;;;;;;;-145.68;27.83;72016.97;10416568;28;21000;-67
2023/08/10 12:33:37;;;;;;;4.75;1.80;;;;;;;-145.68;32.20;72230.75;10415301;28;20270;-67
2023/08/10 12:38:38;;;;;;;3.00;1.67;;;;;;;-145.68;31.43;72192.78;10415650;28;20180;-69
2023/08/10 12:43:38;;;;;;;2.25;1.60;;;;;;;-145.68;32.41;72208.78;10414157;28;20212;-71
2023/08/10 12:48:39;;;;;;;2.35;1.60;;;;;;;-145.68;31.61;72444.56;10415234;28;20716;-69
2023/08/10 12:53:39;;;;;;;2.03;1.50;;;;;;;-145.68;32.63;72454.56;10415180;28;20220;-66
2023/08/10 12:58:39;;;;;;;3.28;1.35;;;;;;;-145.68;30.46;72118.88;10413537;28;20208;-70
2023/08/10 13:03:40;;;;;;;4.30;1.67;;;;;;;-145.68;31.77;72228.75;10414888;28;20292;-69
2023/08/10 13:08:40;;;;;;;2.77;1.37;;;;;;;-145.68;29.14;72020.97;10414154;28;20459;-71
2023/08/10 13:13:40;;;;;;;1.63;1.40;;;;;;;-145.68;29.74;72144.84;10413177;28;20485;-69
2023/08/10 13:18:41;;;;;;;3.40;1.70;;;;;;;-145.68;30.60;72314.69;10414369;28;20612;-69
2023/08/10 13:23:41;;;;;;;3.88;1.50;;;;;;;-145.68;30.11;72158.84;10413981;28;20247;-68
2023/08/10 13:28:42;;;;;;;4.28;1.52;;;;;;;-145.68;29.20;72044.94;10412851;28;20298;-69
2023/08/10 13:33:42;;;;;;;2.75;1.67;;;;;;;-145.68;29.63;72012.97;10413819;28;20255;-71
2023/08/10 13:38:42;;;;;;;1.98;1.60;;;;;;;-145.68;31.10;72394.63;10414027;28;20535;-67
2023/08/10 13:43:43;;;;;;;3.90;1.97;;;;;;;-145.68;32.07;72202.78;10412728;28;20216;-69
2023/08/10 13:48:43;;;;;;;2.20;1.83;;;;;;;-145.68;30.83;71949.03;10412903;28;20478;-70
2023/08/10 13:53:44;;;;;;;2.78;1.50;;;;;;;-145.68;29.07;71851.13;10412800;28;20212;-69
2023/08/10 13:58:44;;;;;;;3.88;1.80;;;;;;;-145.68;29.67;72024.97;10412469;28;20192;-69
2023/08/10 14:03:45;;;;;;;2.43;1.53;;;;;;;-145.68;29.96;72078.91;10410549;28;20295;-68
2023/08/10 14:08:45;;;;;;;2.88;1.60;;;;;;;-145.68;32.56;72240.75;10410866;28;20513;-68
2023/08/10 14:13:45;;;;;;;4.27;1.70;;;;;;;-145.68;30.07;71849.13;10410528;28;20935;-69
2023/08/10 14:18:46;;;;;;;3.35;1.80;;;;;;;-145.68;29.34;71697.28;10412131;28;20952;-69
2023/08/10 14:23:47;;;;;;;4.10;2.13;;;;;;;-145.68;28.01;71591.41;10410279;28;20221;-70
2023/08/10 14:28:47;;;;;;;2.53;1.70;;;;;;;-145.68;27.40;71561.44;10370685;28;20981;-68
2023/08/10 14:33:48;;;;;;;4.83;1.90;;;;;;;-145.68;30.47;72166.81;10391707;28;20227;-70
2023/08/10 14:38:48;;;;;;;5.63;1.90;;;;;;;-145.68;29.30;71996.97;10411495;28;20445;-70
2023/08/10 14:43:49;;;;;;;8.23;1.60;;;;;;;-145.68;28.38;71947.03;10411189;28;20212;-68
2023/08/10 14:48:50;;;;;;;2.13;1.60;;;;;;;-145.68;30.24;72160.81;10411668;28;20483;-70
2023/08/10 14:53:51;;;;;;;2.42;2.13;;;;;;;-145.68;30.49;72092.91;10410793;28;20216;-69
2023/08/10 14:58:51;;;;;;;3.75;1.80;;;;;;;-145.68;28.02;71677.31;10410435;28;20181;-69
2023/08/10 15:03:51;;;;;;;4.83;1.70;;;;;;;-145.68;28.00;71633.34;10408176;28;20804;-69
2023/08/10 15:08:52;;;;;;;4.73;1.60;;;;;;;-145.68;27.03;71517.47;10394318;28;20483;-71
2023/08/10 15:13:52;;;;;;;2.50;1.67;;;;;;;-145.68;28.47;71813.16;10385308;28;20486;-70
2023/08/10 15:18:52;;;;;;;3.17;1.60;;;;;;;-145.68;29.74;72048.94;10409597;28;20443;-69
2023/08/10 15:23:53;;;;;;;2.87;2.13;;;;;;;-145.68;27.84;71731.25;10390300;28;20475;-70
2023/08/10 15:28:53;;;;;;;4.33;1.90;;;;;;;-145.68;27.70;71597.41;10408928;28;20477;-70
2023/08/10 15:33:54;;;;;;;1.87;1.40;;;;;;;-145.68;28.39;71829.16;10409572;28;20534;-70
2023/08/10 15:38:54;;;;;;;2.47;1.90;;;;;;;-145.68;30.31;72138.84;10417216;28;20432;-69
2023/08/10 15:43:54;;;;;;;3.23;1.67;;;;;;;-145.68;29.03;71753.22;10417764;28;20223;-70
2023/08/10 15:48:55;;;;;;;8.20;1.60;;;;;;;-145.68;28.16;71701.28;10417208;28;20475;-70
2023/08/10 15:53:55;;;;;;;2.60;1.60;;;;;;;-145.68;27.39;71677.31;10418657;28;20461;-69
2023/08/10 15:58:56;;;;;;;2.67;1.67;;;;;;;-145.68;27.70;71525.47;10418344;28;20204;-70
2023/08/10 16:04:00;;;;;;;2.20;1.50;;;;;;;-145.68;27.06;71427.59;10414490;28;20999;-70
2023/08/10 16:09:00;;;;;;;4.70;1.70;;;;;;;-145.68;27.57;71643.34;10417505;28;20228;-69
2023/08/10 16:14:00;;;;;;;3.13;1.48;;;;;;;-145.68;28.01;71649.34;10417029;28;20267;-69
2023/08/10 16:19:01;;;;;;;1.65;1.52;;;;;;;-145.68;28.75;71799.19;10418265;28;20184;-68
2023/08/10 16:24:01;;;;;;;1.90;1.60;;;;;;;-145.68;29.52;71935.03;10417871;28;20231;-68
2023/08/10 16:29:02;;;;;;;3.63;1.52;;;;;;;-145.68;31.08;72124.88;10417663;28;20474;-68
2023/08/10 16:34:03;;;;;;;3.38;1.50;;;;;;;-145.68;32.64;72242.75;10417079;28;20212;-69
2023/08/10 16:39:03;;;;;;;2.58;1.90;;;;;;;-145.68;35.69;72540.50;10417745;28;20196;-69
2023/08/10 16:44:04;;;;;;;2.10;1.70;;;;;;;-145.68;35.75;72578.47;10417298;28;20624;-68
2023/08/10 16:49:05;;;;;;;4.57;1.75;;;;;;;-145.68;36.26;72618.44;10415695;28;20232;-68
2023/08/10 16:54:07;;;;;;;4.90;2.10;;;;;;;-145.68;37.35;72672.38;10416778;28;20208;-68
2023/08/10 16:59:08;;;;;;;4.00;2.22;;;;;;;-145.68;39.06;72766.31;10416535;28;20200;-68
2023/08/10 17:04:08;;;;;;;4.32;2.25;;;;;;;-145.68;40.31;72864.22;10416338;28;20215;-68
2023/08/10 17:09:09;;;;;;;8.98;2.75;;;;;;;-145.68;41.84;72880.22;10416096;28;20248;-68
2023/08/10 17:14:11;;;;;;;4.10;2.20;;;;;;;-145.68;42.62;72882.22;10428558;23;20241;-73
2023/08/10 17:19:12;;;;;;;2.17;1.98;;;;;;;-145.68;42.93;72844.25;10415525;28;20181;-73
2023/08/10 17:24:12;;;;;;;2.88;2.42;;;;;;;-145.68;43.18;72860.22;10415605;28;20686;-74
2023/08/10 17:29:13;;;;;;;2.60;2.40;;;;;;;-145.68;45.13;72962.16;10415524;28;20635;-72
2023/08/10 17:34:13;;;;;;;4.55;2.28;;;;;;;-145.68;47.17;73130.03;10415284;28;20295;-72
2023/08/10 17:39:15;;;;;;;2.50;2.30;;;;;;;-145.68;49.63;73180.00;10415585;28;20197;-73
2023/08/10 17:44:16;;;;;;;3.60;2.13;;;;;;;-145.68;51.99;73200.00;10415447;28;20215;-72
2023/08/10 17:49:16;;;;;;;2.55;2.10;;;;;;;-145.68;50.74;73146.03;10414472;28;20570;-72
2023/08/10 17:54:16;;;;;;;5.25;2.17;;;;;;;-145.68;51.79;73186.00;10415159;28;20283;-71
2023/08/10 17:59:17;;;;;;;4.50;2.63;;;;;;;-145.68;53.99;73325.91;10413877;28;20323;-71
2023/08/10 18:04:17;;;;;;;2.78;2.55;;;;;;;-145.68;55.29;73401.84;10414156;28;20215;-72
2023/08/10 18:09:19;;;;;;;4.43;2.45;;;;;;;-145.68;54.91;73389.88;10413872;28;20308;-71
2023/08/10 18:14:20;;;;;;;6.75;3.55;;;;;;;-145.68;57.83;73459.81;10413320;28;20339;-71
2023/08/10 18:19:20;;;;;;;4.72;2.20;;;;;;;-145.68;58.30;73473.81;10413779;28;20255;-72
2023/08/10 18:24:20;;;;;;;3.97;2.40;;;;;;;-145.68;59.55;73537.78;10413072;28;20204;-71
2023/08/10 18:29:21;;;;;;;5.32;3.13;;;;;;;-145.68;60.96;73583.75;10413047;28;20230;-71
2023/08/10 18:34:21;;;;;;;4.65;3.45;;;;;;;-145.68;62.02;73629.72;10412792;28;20227;-71
2023/08/10 18:39:23;;;;;;;4.05;3.38;;;;;;;-145.68;63.88;73663.69;10412713;28;20183;-71
2023/08/10 18:44:23;;;;;;;4.38;3.17;;;;;;;-145.68;65.10;73697.69;10398542;28;20217;-71
2023/08/10 18:49:24;;;;;;;4.93;3.65;;;;;;;-145.68;66.99;73719.66;10369531;28;20224;-71
2023/08/10 18:54:24;;;;;;;6.30;3.70;;;;;;;-145.68;67.69;73733.66;10370539;28;20213;-71
2023/08/10 18:59:24;;;;;;;5.20;3.70;;;;;;;-145.68;68.32;73739.66;10370814;28;20267;-71
2023/08/10 19:04:25;;;;;;;3.25;2.95;;;;;;;-145.68;69.87;73777.63;10370336;28;20295;-71
2023/08/10 19:09:25;;;;;;;5.30;3.40;;;;;;;-145.68;70.86;73787.63;10370343;28;20267;-70
2023/08/10 19:14:26;;;;;;;7.97;3.63;;;;;;;-145.68;72.06;73791.63;10370591;28;20297;-70
2023/08/10 19:19:26;;;;;;;5.88;3.35;;;;;;;-145.68;72.45;73807.63;10370869;28;20675;-71
2023/08/10 19:24:26;;;;;;;7.45;3.60;;;;;;;-145.68;73.89;73815.63;10370363;28;20295;-71
2023/08/10 19:29:29;;;;;;;4.85;3.30;;;;;;;-145.68;74.15;73825.63;10370030;28;20328;-71
2023/08/10 19:34:29;;;;;;;5.63;3.47;;;;;;;-145.68;74.06;73833.59;10367514;28;20255;-70
2023/08/10 19:39:30;;;;;;;5.57;3.45;;;;;;;-145.68;74.26;73835.59;10355335;28;20211;-70
2023/08/10 19:44:30;;;;;;;14.23;4.10;;;;;;;-145.68;73.41;73833.59;10370057;28;20387;-70
2023/08/10 19:49:30;;;;;;;5.88;4.10;;;;;;;-145.68;73.40;73839.59;10362690;28;20220;-69
2023/08/10 19:54:31;;;;;;;8.63;3.45;;;;;;;-145.68;74.10;73843.59;10368933;28;20679;-70
2023/08/10 19:59:31;;;;;;;9.20;3.80;;;;;;;-145.68;74.14;73843.59;10366882;28;20726;-69
2023/08/10 20:04:32;;;;;;;7.90;3.83;;;;;;;-145.68;74.21;73847.59;10368948;28;20571;-70
2023/08/10 20:09:32;;;;;;;4.55;3.53;;;;;;;-145.68;74.09;73847.59;10367697;28;20221;-70
2023/08/10 20:14:32;;;;;;;6.45;3.78;;;;;;;-145.68;73.92;73841.59;10368699;28;20275;-70
2023/08/10 20:19:33;;;;;;;5.00;3.90;;;;;;;-145.68;73.69;73843.59;10367692;28;20679;-70
2023/08/10 20:24:36;;;;;;;6.65;3.67;;;;;;;-145.68;74.02;73865.59;10354891;28;20708;-70
2023/08/10 20:29:36;;;;;;;10.73;3.90;;;;;;;-145.68;73.97;73855.59;10337686;28;20247;-70
2023/08/10 20:34:37;;;;;;;6.15;3.42;;;;;;;-145.68;73.70;73853.59;10336183;28;20364;-70
2023/08/10 20:39:38;;;;;;;4.55;3.20;;;;;;;-145.68;74.04;73843.59;10351588;28;20185;-70
2023/08/10 20:44:38;;;;;;;4.50;3.60;;;;;;;-145.68;74.55;73849.59;10376291;28;20228;-70
2023/08/10 20:49:38;;;;;;;6.50;3.60;;;;;;;-145.68;75.65;73863.59;10366067;28;20299;-70
2023/08/10 20:54:39;;;;;;;6.60;3.45;;;;;;;-145.68;75.78;73851.59;10375793;28;20216;-70
2023/08/10 20:59:40;;;;;;;4.10;3.50;;;;;;;-145.68;75.71;73871.59;10366478;28;20239;-70
2023/08/10 21:04:40;;;;;;;6.18;3.90;;;;;;;-145.68;75.59;73857.59;10334542;28;20253;-70
2023/08/10 21:09:41;;;;;;;4.22;3.50;;;;;;;-145.68;76.06;73859.59;10335239;28;20210;-70
2023/08/10 21:14:41;;;;;;;5.22;3.72;;;;;;;-145.68;75.88;73869.59;10334561;28;20242;-70
2023/08/10 21:19:41;;;;;;;6.93;3.70;;;;;;;-145.68;76.39;73867.59;10334394;28;20196;-70
2023/08/10 21:24:42;;;;;;;8.55;3.65;;;;;;;-145.68;76.72;73865.59;10335017;28;20206;-70
2023/08/10 21:29:42;;;;;;;4.95;3.65;;;;;;;-145.68;77.28;73875.59;10333974;28;20230;-70
2023/08/10 21:34:43;;;;;;;4.20;3.80;;;;;;;-145.68;77.36;73865.59;10368483;28;20232;-70
2023/08/10 21:39:45;;;;;;;4.05;3.47;;;;;;;-145.68;77.68;73875.59;10370371;28;20740;-70
2023/08/10 21:44:45;;;;;;;4.68;3.60;;;;;;;-145.68;77.44;73865.59;10339927;28;20654;-70
2023/08/10 21:49:45;;;;;;;5.85;3.70;;;;;;;-145.68;76.78;73857.59;10333329;28;20312;-70
2023/08/10 21:54:46;;;;;;;6.07;3.45;;;;;;;-145.68;76.83;73857.59;10332510;28;20221;-70
2023/08/10 21:59:46;;;;;;;9.38;3.42;;;;;;;-145.68;77.78;73863.59;10333059;28;20196;-70
2023/08/10 22:04:47;;;;;;;5.53;3.55;;;;;;;-145.68;78.62;73863.59;10332542;28;20224;-70
2023/08/10 22:09:47;;;;;;;7.53;3.55;;;;;;;-145.68;78.23;73859.59;10332406;28;20222;-70
2023/08/10 22:14:47;;;;;;;6.90;3.58;;;;;;;-145.68;78.56;73861.59;10332303;28;20263;-70
2023/08/10 22:19:48;;;;;;;7.30;3.30;;;;;;;-145.68;78.27;73855.59;10332051;28;20270;-70
2023/08/10 22:24:49;;;;;;;4.70;3.25;;;;;;;-145.68;78.67;73861.59;10331782;28;20217;-71
2023/08/10 22:29:49;;;;;;;4.38;3.55;;;;;;;-145.68;78.48;73855.59;10331524;28;20217;-70
2023/08/10 22:34:49;;;;;;;7.05;3.67;;;;;;;-145.68;78.91;73857.59;10331388;28;20272;-70
2023/08/10 22:39:50;;;;;;;4.75;3.65;;;;;;;-145.68;78.58;73853.59;10331483;28;20186;-70
2023/08/10 22:44:50;;;;;;;4.63;3.45;;;;;;;-145.68;78.06;73843.59;10330676;28;20218;-71